Orlando International Airport
KMCO : now visible

Airfield :











YOU CAN JOIN US ON...

 
LOGIN :

Register | Disclaimer

   EN    FR    IT 

 









Legend :    VFR   Marginal VFR   IFR   Intensive IFR   Very Intensive IFR
Visi :
Ceiling :
>= 8 km
>= 3000ft
5 to 8 km
1000 to 3000 ft
1500m to 5 km
500 to 1000 ft
800 to 1500m
200 to 500 ft
< 800m
< 200 ft
Symbols :   Thunderstorms  Fog  Heavy snow  Heavy precipitations  Wind > 20 kt






- Airport Elevation : 96 ft
- IATA code : MCO


KMCO - Orlando International

CURRENT METAR :
  • 122253Z 16016KT 10SM FEW045 SCT065 BKN250 30/23 A2985 RMK AO2 LTG DSNT NE AND SW TSB2159E14B15E21 SLP106 CB DSNT NE AND E-S T03000228

EXPIRED METARs :
  • 122227Z 17010KT 10SM FEW050CB SCT075 BKN250 31/22 A2985 RMK AO2 LTG DSNT NE-S TSB2159E14B15E21 CB NE MOV SE CB DSNT NE AND SE-S T03110217
  • 122205Z 18015KT 10SM TS FEW050CB SCT075 SCT250 31/21 A2984 RMK AO2 LTG DSNT SE AND S TSB2159 OCNL LTGICCG SE-S TS SE-S MOV SE T03110211
  • 122153Z 19010KT 10SM FEW050 SCT075 SCT250 31/21 A2983 RMK AO2 LTG DSNT SE AND S TSE29B31E51 SLP098 TS DSNT SE-S MOV SE T03110211
  • 122131Z 19010KT 10SM TS FEW050CB SCT075 33/22 A2984 RMK AO2 LTG DSNT S TSE29B31 OCNL LTGICCG S TS S MOV SE T03280217
  • 122053Z 19012KT 10SM FEW050 SCT075 33/22 A2985 RMK AO2 SLP105 CB DSNT S-SW T03280222 58010

TAF KMCO
Valid from the 13 at 00:00 until the 14 at 06:00 UTC


122335Z 1300/1406 16011KT P6SM VCSH SCT045 BKN250
FM130200 22004KT P6SM BKN250
FM131400 25008KT P6SM FEW030 SCT250
KZMA FIR / North America



MET'MAP, your aeronautical weather chart ! - Copyright ORBIFLY December 2007 - Disclaimer

ORBIFLY MET'MAP TEAM :

Programming & Development : Alexandra Zaïnal
Concept & original design : Baudouin d'Aumeries
Assistance for programming : Marc-Olivier Méhu
Technical & hardware support : Manuel Goepfert

Contact : metmap@orbifly.com




SOURCES & CREDITS :

   NOAA       Earth
Advisory